Terminal Aerodrome Forecast
Issued by NWS

Home | Current Version | Previous Version | Graphics & Text | Print | Product List | Glossary On
Versions: 1 2 3 4 5 6 7 8 9 10 11 12 13 14 15 16
000
FTUS42 KMHX 151700
TAFPGV
TAF
KPGV 151736Z 1518/1618 VRB03KT P6SM SKC
     FM160900 00000KT 5SM BR OVC020
     FM161500 22006KT P6SM VCSH SCT040
      AMD LTD TO CLD VIS AND WIND=

USA.gov is the U.S. government's official web portal to all federal, state and local government web resources and services.